Time;durP1;ratioP1;P1;durP2;ratioP2;P2;SDS_P1;SDS_P2;PMS_P1;PMS_P2;Temp;Humidity;BMP_temperature;BMP_pressure;BME280_temperature;BME280_humidity;BME280_pressure;Samples;Min_cycle;Max_cycle;Signal;HPM_P1;HPM_P2
2022/06/12 00:00:20;;;;;;;9.00;3.60;;;12.70;99.90;;;;;;5057190;28;20056;-68
2022/06/12 00:02:47;;;;;;;8.90;4.05;;;12.60;99.90;;;;;;5073775;28;20512;-69
2022/06/12 00:05:16;;;;;;;8.63;3.45;;;12.60;99.90;;;;;;5060335;28;20049;-69
2022/06/12 00:07:43;;;;;;;12.30;4.28;;;12.60;99.90;;;;;;5054643;28;20111;-70
2022/06/12 00:10:13;;;;;;;11.68;4.13;;;12.60;99.90;;;;;;5053810;28;20049;-69
2022/06/12 00:12:43;;;;;;;11.63;3.17;;;12.50;99.90;;;;;;5054557;28;20413;-69
2022/06/12 00:15:13;;;;;;;8.50;3.33;;;12.50;99.90;;;;;;5036552;28;20115;-69
2022/06/12 00:17:41;;;;;;;11.30;3.85;;;12.50;99.90;;;;;;5035957;28;20060;-68
2022/06/12 00:20:10;;;;;;;7.40;3.08;;;12.40;99.90;;;;;;5065778;28;20052;-69
2022/06/12 00:22:37;;;;;;;13.15;3.65;;;12.40;99.90;;;;;;5074101;28;20071;-69
2022/06/12 00:25:06;;;;;;;9.40;3.20;;;12.40;99.90;;;;;;5056190;28;20106;-69
2022/06/12 00:27:34;;;;;;;11.07;2.95;;;12.40;99.90;;;;;;5056158;28;20052;-69
2022/06/12 00:30:01;;;;;;;12.55;3.45;;;12.40;99.90;;;;;;5056497;28;20052;-69
2022/06/12 00:32:29;;;;;;;7.70;3.10;;;12.30;99.90;;;;;;5055850;28;20522;-68
2022/06/12 00:34:57;;;;;;;9.80;3.10;;;12.30;99.90;;;;;;5062084;28;20049;-69
2022/06/12 00:37:27;;;;;;;13.00;3.63;;;12.30;99.90;;;;;;5053756;28;20053;-70
2022/06/12 00:39:56;;;;;;;10.50;3.58;;;12.30;99.90;;;;;;5053575;28;20045;-70
2022/06/12 00:42:26;;;;;;;11.15;3.03;;;12.20;99.90;;;;;;5053602;28;20517;-70
2022/06/12 00:44:56;;;;;;;8.05;2.85;;;12.20;99.90;;;;;;5047914;28;20074;-70
2022/06/12 00:47:23;;;;;;;11.20;3.38;;;12.10;99.90;;;;;;5073935;28;20113;-70
2022/06/12 00:49:53;;;;;;;5.93;3.33;;;12.10;99.90;;;;;;5065109;28;20047;-69
2022/06/12 00:52:26;;;;;;;9.10;3.08;;;12.10;99.90;;;;;;5053035;28;20072;-69
2022/06/12 00:54:58;;;;;;;9.32;3.60;;;12.10;99.90;;;;;;5054070;28;20075;-69
2022/06/12 00:57:27;;;;;;;10.82;3.55;;;12.10;99.90;;;;;;5035755;28;20677;-70
2022/06/12 00:59:58;;;;;;;8.88;3.35;;;12.00;99.90;;;;;;5047422;28;20040;-70
2022/06/12 01:02:29;;;;;;;15.45;3.95;;;12.00;99.90;;;;;;5073702;28;20385;-71
2022/06/12 01:07:46;;;;;;;14.27;3.80;;;12.00;99.90;;;;;;5054896;28;20484;-70
2022/06/12 01:10:16;;;;;;;8.02;3.05;;;12.00;99.90;;;;;;5059087;28;20048;-70
2022/06/12 01:12:48;;;;;;;9.50;3.05;;;12.00;99.90;;;;;;5035164;28;20056;-69
2022/06/12 01:15:20;;;;;;;6.60;2.88;;;11.90;99.90;;;;;;5035087;28;20135;-71
2022/06/12 01:17:48;;;;;;;8.02;2.97;;;11.90;99.90;;;;;;5052802;28;20057;-69
2022/06/12 01:20:20;;;;;;;10.77;3.17;;;11.90;99.90;;;;;;5034585;28;20107;-70
2022/06/12 01:23:26;;;;;;;9.75;3.00;;;11.90;99.90;;;;;;5035604;28;20053;-69
2022/06/12 01:26:25;;;;;;;11.80;3.47;;;11.90;99.90;;;;;;5035209;28;20064;-69
2022/06/12 01:28:55;;;;;;;7.43;3.17;;;11.90;99.90;;;;;;5034786;28;20049;-69
2022/06/12 01:31:40;;;;;;;10.73;2.97;;;11.90;99.90;;;;;;5035389;28;20049;-69
2022/06/12 01:34:30;;;;;;;8.88;2.97;;;11.90;99.90;;;;;;5034787;28;20056;-68
2022/06/12 01:37:06;;;;;;;8.03;2.90;;;11.90;99.90;;;;;;5053125;28;20479;-69
2022/06/12 01:39:40;;;;;;;6.18;2.65;;;11.90;99.90;;;;;;5042681;28;20048;-70
2022/06/12 01:42:17;;;;;;;8.23;2.67;;;11.80;99.90;;;;;;5051058;28;20060;-68
2022/06/12 01:44:53;;;;;;;10.82;3.53;;;11.90;99.90;;;;;;5051213;28;20080;-68
2022/06/12 01:47:27;;;;;;;12.10;3.42;;;11.80;99.90;;;;;;5050960;28;20060;-69
2022/06/12 01:50:07;;;;;;;9.68;2.78;;;11.80;99.90;;;;;;5052369;28;20488;-70
2022/06/12 01:52:44;;;;;;;12.43;3.13;;;11.80;99.90;;;;;;5053092;28;20405;-69
2022/06/12 01:55:15;;;;;;;9.23;2.78;;;11.80;99.90;;;;;;5050942;28;20103;-69
2022/06/12 01:57:50;;;;;;;10.20;2.80;;;11.70;99.90;;;;;;5052921;28;20049;-69
2022/06/12 02:00:22;;;;;;;9.57;3.33;;;11.70;99.90;;;;;;5035381;28;20107;-69
2022/06/12 02:02:53;;;;;;;4.97;2.55;;;11.70;99.90;;;;;;5031982;28;20050;-69
2022/06/12 02:05:24;;;;;;;9.93;3.20;;;11.70;99.90;;;;;;5032053;28;20053;-68
2022/06/12 02:07:56;;;;;;;8.38;3.20;;;11.70;99.90;;;;;;5031369;28;20057;-68
2022/06/12 02:10:28;;;;;;;7.28;3.17;;;11.70;99.90;;;;;;5045653;28;20099;-68
2022/06/12 02:13:13;;;;;;;6.78;2.97;;;11.60;99.90;;;;;;5050644;28;20461;-69
2022/06/12 02:15:48;;;;;;;11.68;3.80;;;11.60;99.90;;;;;;5051449;28;20052;-68
2022/06/12 02:18:22;;;;;;;8.00;3.17;;;11.60;99.90;;;;;;5051828;28;20127;-69
2022/06/12 02:20:53;;;;;;;10.15;2.88;;;11.60;99.90;;;;;;5052872;28;20132;-68
2022/06/12 02:23:25;;;;;;;5.45;2.60;;;11.60;99.90;;;;;;5051806;28;20061;-69
2022/06/12 02:25:55;;;;;;;7.35;2.50;;;11.60;99.90;;;;;;5052044;28;20052;-69
2022/06/12 02:28:29;;;;;;;5.63;2.72;;;11.60;99.90;;;;;;5032174;28;20128;-68
2022/06/12 02:31:02;;;;;;;6.13;3.10;;;11.60;99.90;;;;;;5030811;28;20058;-68
2022/06/12 02:33:35;;;;;;;6.30;2.85;;;11.50;99.90;;;;;;5031561;28;20501;-69
2022/06/12 02:36:08;;;;;;;8.70;3.50;;;11.50;99.90;;;;;;5031470;28;20108;-68
2022/06/12 02:38:39;;;;;;;10.63;3.78;;;11.50;99.90;;;;;;5033413;28;20107;-69
2022/06/12 02:41:10;;;;;;;4.53;2.70;;;11.50;99.90;;;;;;5048576;28;20417;-69
2022/06/12 02:43:40;;;;;;;11.98;3.53;;;11.50;99.90;;;;;;5034385;28;20084;-68
2022/06/12 02:46:14;;;;;;;9.75;2.97;;;11.50;99.90;;;;;;5052041;28;20119;-70
2022/06/12 02:48:41;;;;;;;10.65;3.17;;;11.40;99.90;;;;;;5052137;28;20455;-70
2022/06/12 02:51:16;;;;;;;8.60;3.47;;;11.40;99.90;;;;;;5034403;28;20056;-69
2022/06/12 02:53:51;;;;;;;8.20;3.53;;;11.40;99.90;;;;;;5033738;28;20493;-70
2022/06/12 02:56:26;;;;;;;11.63;4.13;;;11.40;99.90;;;;;;5034637;28;20049;-70
2022/06/12 02:58:59;;;;;;;12.18;3.75;;;11.40;99.90;;;;;;5037378;28;20463;-69
2022/06/12 03:01:35;;;;;;;8.13;3.25;;;11.40;99.90;;;;;;5056982;28;20053;-69
2022/06/12 03:04:09;;;;;;;7.47;3.30;;;11.40;99.90;;;;;;5057374;28;20085;-68
2022/06/12 03:06:37;;;;;;;7.82;3.15;;;11.40;99.90;;;;;;5057067;28;20048;-69
2022/06/12 03:09:07;;;;;;;12.00;3.63;;;11.40;99.90;;;;;;5051858;28;20060;-69
2022/06/12 03:11:37;;;;;;;6.13;2.88;;;11.40;99.90;;;;;;5038107;28;20544;-69
2022/06/12 03:14:09;;;;;;;7.57;3.05;;;11.40;99.90;;;;;;5055049;28;20111;-69
2022/06/12 03:16:41;;;;;;;11.90;3.20;;;11.40;99.90;;;;;;5055790;28;20128;-69
2022/06/12 03:19:11;;;;;;;8.80;3.17;;;11.40;99.90;;;;;;5055400;28;20048;-69
2022/06/12 03:21:41;;;;;;;8.02;3.15;;;11.40;99.90;;;;;;5037361;28;20048;-69
2022/06/12 03:24:29;;;;;;;13.23;3.83;;;11.40;99.90;;;;;;5054343;28;20562;-69
2022/06/12 03:27:21;;;;;;;8.98;3.28;;;11.40;99.90;;;;;;5054428;28;20292;-68
2022/06/12 03:29:57;;;;;;;10.95;3.58;;;11.40;99.90;;;;;;5027683;28;20102;-69
2022/06/12 03:32:31;;;;;;;8.10;3.20;;;11.40;99.90;;;;;;5055330;28;20056;-68
2022/06/12 03:35:07;;;;;;;13.20;3.95;;;11.40;99.90;;;;;;5054706;28;20057;-69
2022/06/12 03:37:40;;;;;;;11.93;2.90;;;11.40;99.90;;;;;;5055425;28;20061;-70
2022/06/12 03:40:15;;;;;;;15.52;3.42;;;11.40;99.90;;;;;;5050883;28;20561;-70
2022/06/12 03:42:50;;;;;;;9.30;3.30;;;11.40;99.90;;;;;;5053373;28;20053;-70
2022/06/12 03:45:22;;;;;;;9.13;3.03;;;11.40;99.90;;;;;;5054141;28;20071;-69
2022/06/12 03:47:54;;;;;;;10.95;3.58;;;11.40;99.90;;;;;;5053219;28;20049;-69
2022/06/12 03:50:30;;;;;;;8.55;3.10;;;11.50;99.90;;;;;;5054082;28;20049;-69
2022/06/12 03:53:02;;;;;;;9.30;3.22;;;11.50;99.90;;;;;;5055006;28;20110;-69
2022/06/12 03:58:21;;;;;;;;;;;11.50;99.90;;;;;;5035304;28;20068;-68
2022/06/12 04:00:50;;;;;;;8.18;3.30;;;11.60;99.90;;;;;;5034560;28;19921;-69
2022/06/12 04:03:23;;;;;;;11.95;3.03;;;11.60;99.90;;;;;;5034519;28;20049;-69
2022/06/12 04:05:53;;;;;;;11.10;3.85;;;11.60;99.90;;;;;;5033727;28;20096;-69
2022/06/12 04:08:23;;;;;;;10.35;4.22;;;11.60;99.90;;;;;;5034212;28;20555;-70
2022/06/12 04:10:52;;;;;;;6.90;2.92;;;11.60;99.90;;;;;;5053504;28;20098;-70
2022/06/12 04:13:22;;;;;;;7.57;2.90;;;11.70;99.90;;;;;;5053767;28;20053;-68
2022/06/12 04:15:54;;;;;;;9.88;3.28;;;11.70;99.90;;;;;;5054207;28;20041;-69
2022/06/12 04:18:23;;;;;;;7.40;3.15;;;11.80;99.90;;;;;;5053717;28;20067;-70
2022/06/12 04:20:55;;;;;;;7.38;2.83;;;11.90;99.90;;;;;;5053015;28;20048;-70
2022/06/12 04:23:31;;;;;;;8.68;3.35;;;12.00;99.90;;;;;;5052565;28;20056;-70
2022/06/12 04:26:03;;;;;;;9.55;3.22;;;12.00;99.90;;;;;;5053132;28;20057;-68
2022/06/12 04:28:33;;;;;;;12.77;3.20;;;12.10;99.90;;;;;;5054033;28;20497;-69
2022/06/12 04:31:02;;;;;;;6.50;2.70;;;12.20;99.90;;;;;;5053893;28;20092;-69
2022/06/12 04:34:05;;;;;;;10.23;2.85;;;12.40;99.90;;;;;;5044918;28;20311;-69
2022/06/12 04:36:32;;;;;;;14.10;3.70;;;12.40;99.90;;;;;;5032945;28;20115;-69
2022/06/12 04:38:58;;;;;;;9.48;3.17;;;12.50;99.90;;;;;;5036325;28;20060;-69
2022/06/12 04:41:29;;;;;;;9.00;3.10;;;12.50;99.90;;;;;;5052933;28;20106;-68
2022/06/12 04:43:56;;;;;;;;;;;12.60;99.90;;;;;;5053620;28;20048;-69
2022/06/12 04:46:24;;;;;;;8.25;2.97;;;12.70;99.90;;;;;;5053087;28;20272;-69
2022/06/12 04:48:56;;;;;;;8.77;2.85;;;12.70;99.90;;;;;;5053732;28;20045;-70
2022/06/12 04:51:24;;;;;;;10.40;3.55;;;12.70;99.90;;;;;;5052061;28;20052;-69
2022/06/12 04:53:51;;;;;;;7.57;3.72;;;12.70;99.90;;;;;;5047746;28;20456;-69
2022/06/12 04:56:20;;;;;;;12.20;3.45;;;12.80;99.90;;;;;;5053510;28;20052;-68
2022/06/12 04:58:48;;;;;;;8.52;3.30;;;12.80;99.90;;;;;;5051811;28;20049;-69
2022/06/12 05:01:15;;;;;;;9.73;3.45;;;12.90;99.90;;;;;;5052419;28;20485;-68
2022/06/12 05:03:42;;;;;;;7.70;3.35;;;13.00;99.90;;;;;;5053442;28;20048;-69
2022/06/12 05:06:13;;;;;;;13.02;4.07;;;13.00;99.90;;;;;;5052957;28;20551;-69
2022/06/12 05:08:40;;;;;;;13.07;3.60;;;13.10;99.90;;;;;;5052229;28;20131;-69
2022/06/12 05:11:07;;;;;;;14.63;3.40;;;13.30;99.90;;;;;;5051865;28;20052;-68
2022/06/12 05:13:34;;;;;;;9.45;3.55;;;13.40;99.90;;;;;;5053154;28;20481;-68
2022/06/12 05:16:01;;;;;;;8.32;3.40;;;13.60;99.90;;;;;;5052516;28;20139;-68
2022/06/12 05:18:28;;;;;;;13.80;3.55;;;13.80;99.90;;;;;;5053562;28;20049;-68
2022/06/12 05:20:57;;;;;;;14.90;3.53;;;14.00;99.90;;;;;;5050901;28;20413;-68
2022/06/12 05:23:25;;;;;;;12.27;3.88;;;14.20;99.90;;;;;;5052313;28;20497;-68
2022/06/12 05:25:52;;;;;;;9.70;4.20;;;14.40;99.90;;;;;;5031997;28;20045;-69
2022/06/12 05:28:20;;;;;;;11.60;4.30;;;14.50;99.90;;;;;;5032964;28;20052;-68
2022/06/12 05:30:47;;;;;;;12.98;3.97;;;14.70;99.90;;;;;;5031835;28;20128;-69
2022/06/12 05:33:15;;;;;;;14.52;3.97;;;14.90;99.90;;;;;;5031860;28;20160;-69
2022/06/12 05:35:43;;;;;;;11.80;4.88;;;15.00;99.90;;;;;;5032116;28;20052;-69
2022/06/12 05:38:11;;;;;;;10.45;3.85;;;15.20;99.90;;;;;;5032663;28;20053;-70
2022/06/12 05:40:41;;;;;;;17.55;4.40;;;15.30;99.90;;;;;;5032579;28;20378;-70
2022/06/12 05:43:09;;;;;;;10.05;3.67;;;15.50;99.90;;;;;;5031817;28;20115;-69
2022/06/12 05:45:36;;;;;;;11.65;4.55;;;15.60;99.90;;;;;;5031498;28;20053;-69
2022/06/12 05:48:06;;;;;;;14.93;4.10;;;15.70;99.90;;;;;;5031336;28;20061;-69
2022/06/12 05:50:35;;;;;;;;;;;15.90;99.90;;;;;;5032092;28;20449;-71
2022/06/12 05:53:03;;;;;;;14.30;4.63;;;16.10;99.90;;;;;;5042351;28;20434;-69
2022/06/12 05:55:30;;;;;;;14.52;5.18;;;16.20;99.90;;;;;;5045630;28;20712;-70
2022/06/12 05:57:58;;;;;;;15.82;4.68;;;16.40;99.90;;;;;;5047426;28;20049;-69
2022/06/12 06:00:28;;;;;;;11.82;4.10;;;16.60;99.90;;;;;;5051158;28;20041;-70
2022/06/12 06:02:55;;;;;;;19.23;5.20;;;16.70;99.90;;;;;;5049688;28;20110;-69
2022/06/12 06:05:23;;;;;;;17.92;5.55;;;16.80;99.90;;;;;;5050602;28;20494;-71
2022/06/12 06:07:50;;;;;;;13.35;4.88;;;17.00;99.90;;;;;;5051020;28;20436;-69
2022/06/12 06:10:20;;;;;;;18.73;5.28;;;17.30;99.90;;;;;;5048978;28;20053;-69
2022/06/12 06:12:47;;;;;;;22.60;4.45;;;17.40;99.90;;;;;;5049588;28;20103;-70
2022/06/12 06:15:16;;;;;;;15.30;4.63;;;17.60;99.90;;;;;;5050312;28;20444;-71
2022/06/12 06:17:43;;;;;;;11.93;4.85;;;17.80;99.90;;;;;;5046194;28;20060;-71
2022/06/12 06:20:14;;;;;;;17.85;5.43;;;18.00;99.90;;;;;;5050147;28;20049;-70
2022/06/12 06:22:41;;;;;;;16.80;5.35;;;18.10;99.90;;;;;;5049013;28;20048;-70
2022/06/12 06:25:09;;;;;;;20.52;5.20;;;18.20;99.90;;;;;;5048572;28;20049;-71
2022/06/12 06:27:36;;;;;;;19.73;4.57;;;18.30;99.90;;;;;;5048230;28;20056;-70
2022/06/12 06:30:04;;;;;;;12.35;5.05;;;18.50;99.90;;;;;;5048686;28;20562;-71
2022/06/12 06:32:32;;;;;;;16.10;4.97;;;18.50;99.90;;;;;;5050738;28;20052;-69
2022/06/12 06:34:59;;;;;;;14.57;4.43;;;18.60;99.90;;;;;;5052840;28;20057;-70
2022/06/12 06:37:26;;;;;;;18.83;4.88;;;18.60;99.90;;;;;;5053919;28;20056;-71
2022/06/12 06:39:53;;;;;;;10.95;4.45;;;18.80;99.90;;;;;;5054311;28;20063;-71
2022/06/12 06:42:20;;;;;;;17.83;4.95;;;19.00;99.90;;;;;;5067458;28;20471;-71
2022/06/12 06:47:33;;;;;;;15.65;4.93;;;19.20;99.90;;;;;;5074596;28;20036;-71
2022/06/12 06:50:00;;;;;;;16.52;5.20;;;19.50;99.90;;;;;;5073858;28;20670;-70
2022/06/12 06:52:26;;;;;;;19.65;4.93;;;19.50;99.90;;;;;;5075068;28;20048;-70
2022/06/12 06:54:53;;;;;;;14.45;5.13;;;19.80;99.90;;;;;;5055526;28;20617;-71
2022/06/12 06:57:20;;;;;;;16.13;4.78;;;20.00;99.90;;;;;;5056630;28;20381;-71
2022/06/12 06:59:47;;;;;;;17.88;5.22;;;20.30;99.90;;;;;;5050240;28;20048;-71
2022/06/12 07:02:14;;;;;;;13.23;3.95;;;20.60;99.90;;;;;;5074123;28;20048;-71
2022/06/12 07:04:43;;;;;;;14.68;4.40;;;20.90;99.90;;;;;;5074313;28;20052;-71
2022/06/12 07:07:11;;;;;;;18.13;5.28;;;21.20;99.90;;;;;;5073895;28;21154;-70
2022/06/12 07:09:40;;;;;;;15.43;4.93;;;21.40;99.90;;;;;;5056351;28;20048;-71
2022/06/12 07:12:08;;;;;;;17.58;4.88;;;21.60;99.90;;;;;;5073162;28;20044;-69
2022/06/12 07:14:35;;;;;;;15.55;5.30;;;21.80;99.90;;;;;;5056182;28;20488;-71
2022/06/12 07:17:02;;;;;;;20.63;4.10;;;22.10;99.90;;;;;;5054901;28;20053;-72
2022/06/12 07:19:29;;;;;;;10.02;3.92;;;22.40;99.90;;;;;;5055271;28;20053;-71
2022/06/12 07:21:57;;;;;;;11.25;3.78;;;22.60;99.90;;;;;;5055973;28;20049;-71
2022/06/12 07:24:24;;;;;;;12.35;3.85;;;22.80;99.90;;;;;;5054402;28;20570;-71
2022/06/12 07:26:51;;;;;;;16.92;4.30;;;23.10;99.90;;;;;;5054272;28;20075;-72
2022/06/12 07:29:21;;;;;;;11.82;3.53;;;23.10;99.90;;;;;;5074612;28;20044;-72
2022/06/12 07:31:48;;;;;;;12.83;4.53;;;23.50;99.90;;;;;;5055101;28;20519;-72
2022/06/12 07:34:16;;;;;;;15.15;3.50;;;23.60;99.90;;;;;;5054950;28;20303;-72
2022/06/12 07:36:46;;;;;;;11.27;3.28;;;23.80;99.90;;;;;;5054706;28;20048;-72
2022/06/12 07:39:22;;;;;;;9.90;3.50;;;24.10;99.90;;;;;;5072461;28;20044;-71
2022/06/12 07:41:51;;;;;;;12.55;4.18;;;24.50;99.90;;;;;;5072218;28;20094;-71
2022/06/12 07:44:20;;;;;;;14.98;3.72;;;24.10;99.90;;;;;;5054081;28;20143;-72
2022/06/12 07:46:47;;;;;;;12.07;3.67;;;24.40;99.90;;;;;;5055173;28;20135;-71
2022/06/12 07:49:14;;;;;;;10.90;3.67;;;24.30;99.90;;;;;;5072951;28;20110;-73
2022/06/12 07:51:41;;;;;;;10.20;2.90;;;24.20;99.90;;;;;;5055457;28;20098;-70
2022/06/12 07:54:08;;;;;;;10.70;3.33;;;23.90;99.80;;;;;;5071177;28;20048;-71
2022/06/12 07:56:37;;;;;;;8.65;2.97;;;24.20;99.70;;;;;;5073030;28;20102;-71
2022/06/12 07:59:06;;;;;;;12.60;3.80;;;24.60;98.20;;;;;;5055635;28;20052;-71
2022/06/12 08:01:33;;;;;;;17.30;3.22;;;24.90;98.60;;;;;;5072267;28;20088;-71
2022/06/12 08:04:00;;;;;;;11.73;3.40;;;25.10;98.20;;;;;;5071681;28;20059;-71
2022/06/12 08:06:28;;;;;;;8.68;3.10;;;25.20;97.80;;;;;;5050561;28;20055;-71
2022/06/12 08:08:57;;;;;;;9.85;2.92;;;25.50;96.20;;;;;;5071948;28;20094;-72
2022/06/12 08:11:26;;;;;;;8.38;2.72;;;25.80;95.80;;;;;;5072623;28;20215;-72
2022/06/12 08:13:55;;;;;;;10.60;3.10;;;26.00;95.60;;;;;;5072464;28;20048;-72
2022/06/12 08:16:23;;;;;;;12.82;2.95;;;26.20;93.70;;;;;;5072772;28;20044;-72
2022/06/12 08:18:50;;;;;;;9.48;3.08;;;26.50;93.80;;;;;;5072344;28;20094;-72
2022/06/12 08:21:18;;;;;;;10.45;3.08;;;26.70;93.00;;;;;;5051657;28;20048;-73
2022/06/12 08:23:48;;;;;;;11.43;2.50;;;26.60;92.30;;;;;;5069352;28;20045;-73
2022/06/12 08:26:19;;;;;;;10.10;3.30;;;26.90;92.20;;;;;;5048757;28;20052;-73
2022/06/12 08:28:48;;;;;;;10.15;3.35;;;27.00;92.10;;;;;;5072609;28;20090;-71
2022/06/12 08:31:20;;;;;;;8.27;2.80;;;26.90;92.00;;;;;;5053091;28;20052;-72
2022/06/12 08:33:49;;;;;;;16.15;3.75;;;26.30;90.60;;;;;;5071422;28;20098;-72
2022/06/12 08:36:18;;;;;;;9.98;2.70;;;26.20;91.50;;;;;;5050117;28;20044;-71
2022/06/12 08:38:46;;;;;;;14.50;3.65;;;26.60;91.50;;;;;;5052849;28;20114;-71
2022/06/12 08:41:19;;;;;;;10.02;3.15;;;26.50;91.70;;;;;;5070141;28;20143;-71
2022/06/12 08:43:53;;;;;;;13.27;3.42;;;26.50;91.50;;;;;;5068892;28;20056;-72
2022/06/12 08:46:31;;;;;;;11.68;3.33;;;26.10;91.30;;;;;;5071289;28;20075;-72
2022/06/12 08:49:05;;;;;;;10.95;3.63;;;25.80;91.20;;;;;;5069987;28;20044;-74
2022/06/12 08:51:37;;;;;;;9.52;2.80;;;26.20;92.00;;;;;;5071537;28;20044;-72
2022/06/12 08:54:11;;;;;;;7.00;3.28;;;26.60;91.90;;;;;;5049231;28;20055;-70
2022/06/12 08:56:43;;;;;;;10.35;3.67;;;26.50;91.40;;;;;;5068041;28;20128;-71
2022/06/12 08:59:16;;;;;;;14.75;4.07;;;25.90;91.70;;;;;;5052795;28;20419;-72
2022/06/12 09:01:45;;;;;;;10.82;3.17;;;25.60;91.80;;;;;;5068093;28;20040;-71
2022/06/12 09:04:15;;;;;;;10.70;3.30;;;26.10;92.40;;;;;;5054581;28;20143;-73
2022/06/12 09:06:44;;;;;;;;;;;26.30;91.50;;;;;;5071686;28;20045;-72
2022/06/12 09:09:20;;;;;;;9.88;2.85;;;26.00;90.60;;;;;;5071256;28;19920;-72
2022/06/12 09:11:49;;;;;;;11.00;3.30;;;25.40;91.10;;;;;;5069126;28;20605;-71
2022/06/12 09:14:40;;;;;;;9.90;3.65;;;25.30;91.80;;;;;;5049598;28;20048;-71
2022/06/12 09:17:20;;;;;;;13.82;3.38;;;24.90;91.30;;;;;;5069331;28;20056;-70
2022/06/12 09:19:54;;;;;;;9.35;2.67;;;24.50;92.10;;;;;;5052969;28;20109;-71
2022/06/12 09:22:26;;;;;;;11.68;3.28;;;24.10;92.40;;;;;;5053125;28;20094;-71
2022/06/12 09:24:59;;;;;;;8.60;3.00;;;24.00;93.00;;;;;;5071205;28;20545;-71
2022/06/12 09:27:47;;;;;;;9.35;2.45;;;23.90;92.70;;;;;;5070425;28;20098;-72
2022/06/12 09:30:19;;;;;;;12.77;2.72;;;24.00;92.40;;;;;;5053167;28;20048;-73
2022/06/12 09:32:55;;;;;;;11.15;3.20;;;23.90;92.80;;;;;;5071425;28;20343;-72
2022/06/12 09:35:36;;;;;;;11.73;2.90;;;24.20;93.00;;;;;;5054980;28;20054;-72
2022/06/12 09:38:22;;;;;;;7.57;3.00;;;25.00;92.60;;;;;;5070979;28;20086;-73
2022/06/12 09:41:05;;;;;;;9.25;2.67;;;25.80;92.10;;;;;;5051579;28;20048;-72
2022/06/12 09:43:39;;;;;;;4.97;2.20;;;26.00;90.40;;;;;;5069852;28;20062;-71
2022/06/12 09:46:16;;;;;;;6.18;2.25;;;25.70;90.20;;;;;;5053784;28;20484;-73
2022/06/12 09:48:57;;;;;;;7.32;2.28;;;25.20;90.30;;;;;;5052766;28;20063;-72
2022/06/12 09:51:38;;;;;;;7.93;2.55;;;24.90;90.40;;;;;;5070835;28;20048;-73
2022/06/12 09:54:24;;;;;;;7.93;2.10;;;25.30;90.20;;;;;;5053214;28;20047;-71
2022/06/12 09:56:59;;;;;;;5.20;2.10;;;26.00;88.40;;;;;;5050116;28;20488;-73
2022/06/12 09:59:31;;;;;;;6.05;1.67;;;26.50;87.70;;;;;;5051196;28;20403;-73
2022/06/12 10:02:05;;;;;;;4.22;1.60;;;26.80;82.30;;;;;;5052462;28;20071;-72
2022/06/12 10:04:46;;;;;;;4.68;1.50;;;27.20;80.10;;;;;;5052873;28;20079;-71
2022/06/12 10:07:19;;;;;;;3.63;1.30;;;27.10;75.70;;;;;;5052914;28;20076;-73
2022/06/12 10:09:53;;;;;;;4.40;1.50;;;27.00;77.70;;;;;;5052412;28;20484;-72
2022/06/12 10:12:25;;;;;;;7.13;1.95;;;26.00;77.20;;;;;;5049805;28;20102;-72
2022/06/12 10:14:56;;;;;;;6.43;1.70;;;25.40;79.30;;;;;;5053261;28;20106;-73
2022/06/12 10:17:27;;;;;;;5.15;1.70;;;25.40;80.40;;;;;;5050309;28;20044;-72
2022/06/12 10:20:00;;;;;;;5.38;1.58;;;25.60;79.60;;;;;;5072602;28;20049;-73
2022/06/12 10:22:31;;;;;;;3.08;1.60;;;26.30;77.70;;;;;;5053577;28;20550;-73
2022/06/12 10:25:00;;;;;;;5.88;1.90;;;26.70;78.80;;;;;;5053046;28;20049;-73
2022/06/12 10:27:40;;;;;;;5.28;1.70;;;26.60;77.20;;;;;;5070160;28;20546;-73
2022/06/12 10:30:07;;;;;;;;;;;27.00;78.10;;;;;;5071486;28;20136;-73
2022/06/12 10:32:48;;;;;;;4.60;1.58;;;27.40;75.80;;;;;;5070758;28;20280;-73
2022/06/12 10:35:19;;;;;;;4.78;1.73;;;28.00;76.80;;;;;;5071132;28;20048;-74
2022/06/12 10:37:46;;;;;;;4.38;1.73;;;28.10;76.20;;;;;;5051209;28;20098;-74
2022/06/12 10:40:18;;;;;;;5.65;1.50;;;27.50;75.80;;;;;;5052052;28;20397;-73
2022/06/12 10:42:50;;;;;;;5.65;1.88;;;27.00;74.10;;;;;;5068661;28;20048;-73
2022/06/12 10:45:24;;;;;;;5.30;2.00;;;26.80;75.80;;;;;;5051460;28;20052;-73
2022/06/12 10:47:53;;;;;;;7.13;1.90;;;27.10;76.60;;;;;;5065965;28;20071;-73
2022/06/12 10:50:25;;;;;;;5.97;2.13;;;27.40;77.00;;;;;;5070296;28;20056;-73
2022/06/12 10:53:03;;;;;;;3.55;1.55;;;27.60;77.10;;;;;;5052298;28;20445;-72
2022/06/12 10:55:41;;;;;;;5.35;1.83;;;27.70;73.50;;;;;;5068773;28;20470;-71
2022/06/12 10:58:28;;;;;;;5.43;2.20;;;27.90;73.50;;;;;;5051919;28;20527;-72
2022/06/12 11:01:00;;;;;;;5.97;2.10;;;27.80;73.30;;;;;;5051333;28;20303;-72
2022/06/12 11:03:37;;;;;;;7.50;1.95;;;27.90;73.00;;;;;;5064954;28;20048;-71
2022/06/12 11:06:12;;;;;;;5.45;2.10;;;28.10;73.30;;;;;;5051619;28;20056;-72
2022/06/12 11:09:08;;;;;;;6.57;1.90;;;27.80;71.60;;;;;;5069956;28;20148;-72
2022/06/12 11:11:47;;;;;;;5.60;2.00;;;27.30;73.00;;;;;;5069720;28;20451;-73
2022/06/12 11:14:29;;;;;;;4.70;1.77;;;27.70;72.50;;;;;;5070945;28;20053;-72
2022/06/12 11:17:07;;;;;;;6.18;2.25;;;27.60;71.80;;;;;;5047440;28;20128;-73
2022/06/12 11:19:46;;;;;;;5.78;2.17;;;27.80;72.70;;;;;;5052754;28;20045;-73
2022/06/12 11:22:33;;;;;;;6.93;2.03;;;27.90;73.80;;;;;;5073065;28;20045;-72
2022/06/12 11:25:14;;;;;;;8.50;1.88;;;28.10;71.90;;;;;;5069831;28;20114;-73
2022/06/12 11:27:57;;;;;;;6.53;2.30;;;28.00;72.50;;;;;;5070796;28;20052;-73
2022/06/12 11:30:39;;;;;;;6.22;2.03;;;27.80;72.60;;;;;;5055236;28;20530;-75
2022/06/12 11:33:23;;;;;;;5.85;1.60;;;28.20;72.70;;;;;;5054215;28;20040;-73
2022/06/12 11:35:58;;;;;;;7.47;1.80;;;28.80;71.90;;;;;;5068165;28;20416;-75
2022/06/12 11:38:57;;;;;;;10.40;2.10;;;28.70;70.00;;;;;;5047788;28;20074;-74
2022/06/12 11:41:36;;;;;;;5.55;1.67;;;28.30;70.20;;;;;;5049416;28;20064;-74
2022/06/12 11:44:15;;;;;;;16.38;2.03;;;27.80;70.00;;;;;;5055691;28;20148;-72
2022/06/12 11:46:49;;;;;;;6.80;1.88;;;27.50;68.90;;;;;;5045552;28;20118;-71
2022/06/12 11:49:41;;;;;;;6.80;2.38;;;27.50;69.50;;;;;;5074102;28;20060;-72
2022/06/12 11:52:21;;;;;;;4.18;1.50;;;27.60;68.90;;;;;;5054362;28;20055;-73
2022/06/12 11:55:13;;;;;;;4.63;1.70;;;28.10;66.80;;;;;;5040055;28;20060;-72
2022/06/12 11:57:55;;;;;;;4.03;1.15;;;28.00;67.70;;;;;;5059467;28;20056;-71
2022/06/12 12:00:29;;;;;;;5.65;1.92;;;28.10;67.20;;;;;;5071999;28;20052;-72
2022/06/12 12:03:16;;;;;;;7.07;2.25;;;27.90;67.90;;;;;;5053025;28;20049;-72
2022/06/12 12:05:53;;;;;;;5.82;1.88;;;28.00;69.20;;;;;;5068046;28;20522;-73
2022/06/12 12:08:40;;;;;;;4.00;1.60;;;27.90;70.70;;;;;;5065298;28;20101;-72
2022/06/12 12:11:13;;;;;;;8.40;1.83;;;28.20;67.30;;;;;;5073347;28;20048;-72
2022/06/12 12:13:43;;;;;;;4.40;1.60;;;27.90;67.00;;;;;;5074882;28;20051;-72
2022/06/12 12:16:20;;;;;;;4.15;1.30;;;27.10;67.00;;;;;;5055725;28;20440;-71
2022/06/12 12:18:53;;;;;;;4.55;1.83;;;26.90;67.90;;;;;;5056370;28;20044;-72
2022/06/12 12:21:29;;;;;;;4.68;1.80;;;26.80;68.40;;;;;;5056364;28;20040;-73
2022/06/12 12:23:58;;;;;;;4.05;1.40;;;27.40;68.50;;;;;;5074747;28;20483;-73
2022/06/12 12:26:31;;;;;;;8.40;1.65;;;27.40;67.00;;;;;;5074124;28;20052;-71
2022/06/12 12:29:01;;;;;;;3.13;1.30;;;27.80;67.60;;;;;;5073993;28;20060;-71
2022/06/12 12:31:29;;;;;;;4.65;1.80;;;28.00;66.90;;;;;;5074179;28;20048;-72
2022/06/12 12:34:00;;;;;;;4.72;1.58;;;27.70;66.90;;;;;;5056609;28;20060;-71
2022/06/12 12:42:25;;;;;;;4.57;1.35;;;26.40;67.50;;;;;;5056235;28;20052;-72
2022/06/12 12:44:52;;;;;;;4.38;1.92;;;26.80;67.10;;;;;;5056108;28;20143;-71
2022/06/12 12:47:22;;;;;;;3.60;1.48;;;26.70;67.90;;;;;;5056122;28;20070;-71
2022/06/12 12:49:51;;;;;;;3.40;1.20;;;27.30;67.30;;;;;;5055833;28;20060;-72
2022/06/12 12:52:21;;;;;;;7.38;1.80;;;27.30;67.90;;;;;;5056470;28;20084;-72
2022/06/12 12:54:51;;;;;;;5.28;2.05;;;26.60;68.00;;;;;;5055692;28;20126;-73
2022/06/12 12:57:20;;;;;;;4.18;1.50;;;26.50;68.10;;;;;;5055777;28;20053;-71
2022/06/12 12:59:52;;;;;;;4.53;1.90;;;26.10;68.60;;;;;;5056149;28;20052;-72
2022/06/12 13:02:27;;;;;;;5.38;2.05;;;25.70;69.80;;;;;;5055780;28;20102;-72
2022/06/12 13:04:58;;;;;;;4.85;1.90;;;25.30;69.50;;;;;;5055005;28;20055;-72
2022/06/12 13:07:52;;;;;;;5.45;2.10;;;25.40;70.20;;;;;;5073755;28;20048;-71
2022/06/12 13:10:51;;;;;;;5.25;1.70;;;26.20;70.80;;;;;;5056046;28;20439;-72
2022/06/12 13:13:58;;;;;;;5.10;1.67;;;25.60;69.40;;;;;;5073950;28;20041;-71
2022/06/12 13:16:39;;;;;;;9.45;2.35;;;25.60;71.20;;;;;;5055413;28;20098;-71
2022/06/12 13:19:34;;;;;;;8.10;1.90;;;26.50;70.60;;;;;;5055136;28;20110;-73
2022/06/12 13:22:17;;;;;;;4.25;1.48;;;26.80;69.40;;;;;;5055252;28;20048;-71
2022/06/12 13:24:47;;;;;;;4.90;1.90;;;27.00;67.20;;;;;;5054808;28;20109;-71